sensor_id;sensor_type;location;lat;lon;timestamp;pressure;altitude;pressure_sealevel;temperature;humidity
11856;BME280;5987;53.140;8.904;2023-04-27T00:00:39;102011.84;;;2.20;100.00
11856;BME280;5987;53.140;8.904;2023-04-27T00:03:43;102008.34;;;2.17;100.00
11856;BME280;5987;53.140;8.904;2023-04-27T00:06:47;102003.06;;;2.11;100.00
11856;BME280;5987;53.140;8.904;2023-04-27T00:09:51;102003.00;;;2.08;100.00
11856;BME280;5987;53.140;8.904;2023-04-27T00:12:55;102002.91;;;2.01;100.00
11856;BME280;5987;53.140;8.904;2023-04-27T00:16:00;102004.56;;;1.98;100.00
11856;BME280;5987;53.140;8.904;2023-04-27T00:19:05;101996.66;;;1.88;100.00
11856;BME280;5987;53.140;8.904;2023-04-27T00:22:10;101998.28;;;1.83;100.00
11856;BME280;5987;53.140;8.904;2023-04-27T00:25:13;102009.38;;;1.78;100.00
11856;BME280;5987;53.140;8.904;2023-04-27T00:28:17;102009.34;;;1.75;100.00
11856;BME280;5987;53.140;8.904;2023-04-27T00:31:22;102008.41;;;1.71;100.00
11856;BME280;5987;53.140;8.904;2023-04-27T00:34:26;102009.16;;;1.65;100.00
11856;BME280;5987;53.140;8.904;2023-04-27T00:37:30;102012.53;;;1.61;100.00
11856;BME280;5987;53.140;8.904;2023-04-27T00:40:33;102014.19;;;1.58;100.00
11856;BME280;5987;53.140;8.904;2023-04-27T00:43:41;102018.47;;;1.57;100.00
11856;BME280;5987;53.140;8.904;2023-04-27T00:46:47;102016.69;;;1.54;100.00
11856;BME280;5987;53.140;8.904;2023-04-27T00:49:51;102016.59;;;1.48;100.00
11856;BME280;5987;53.140;8.904;2023-04-27T00:52:55;102028.56;;;1.43;100.00
11856;BME280;5987;53.140;8.904;2023-04-27T00:55:59;102025.06;;;1.40;100.00
11856;BME280;5987;53.140;8.904;2023-04-27T00:59:03;102023.31;;;1.40;100.00
11856;BME280;5987;53.140;8.904;2023-04-27T01:02:09;102032.03;;;1.44;100.00
11856;BME280;5987;53.140;8.904;2023-04-27T01:05:13;102037.28;;;1.48;100.00
11856;BME280;5987;53.140;8.904;2023-04-27T01:08:17;102033.88;;;1.49;100.00
11856;BME280;5987;53.140;8.904;2023-04-27T01:11:21;102038.13;;;1.47;100.00
11856;BME280;5987;53.140;8.904;2023-04-27T01:14:25;102046.03;;;1.53;100.00
11856;BME280;5987;53.140;8.904;2023-04-27T01:17:30;102045.13;;;1.51;100.00
11856;BME280;5987;53.140;8.904;2023-04-27T01:20:34;102051.19;;;1.52;100.00
11856;BME280;5987;53.140;8.904;2023-04-27T01:23:39;102046.84;;;1.51;100.00
11856;BME280;5987;53.140;8.904;2023-04-27T01:26:42;102045.63;;;1.35;100.00
11856;BME280;5987;53.140;8.904;2023-04-27T01:29:46;102053.19;;;1.24;100.00
11856;BME280;5987;53.140;8.904;2023-04-27T01:32:50;102057.69;;;1.33;100.00
11856;BME280;5987;53.140;8.904;2023-04-27T01:35:53;102060.16;;;1.27;100.00
11856;BME280;5987;53.140;8.904;2023-04-27T01:38:58;102058.44;;;1.27;100.00
11856;BME280;5987;53.140;8.904;2023-04-27T01:42:02;102062.63;;;1.22;100.00
11856;BME280;5987;53.140;8.904;2023-04-27T01:45:08;102067.91;;;1.27;100.00
11856;BME280;5987;53.140;8.904;2023-04-27T01:48:12;102062.53;;;1.17;100.00
11856;BME280;5987;53.140;8.904;2023-04-27T01:51:15;102067.56;;;1.11;100.00
11856;BME280;5987;53.140;8.904;2023-04-27T01:54:20;102068.44;;;1.12;100.00
11856;BME280;5987;53.140;8.904;2023-04-27T01:57:24;102065.66;;;1.04;100.00
11856;BME280;5987;53.140;8.904;2023-04-27T02:00:28;102062.19;;;1.02;100.00
11856;BME280;5987;53.140;8.904;2023-04-27T02:03:31;102062.13;;;0.99;100.00
11856;BME280;5987;53.140;8.904;2023-04-27T02:06:35;102066.38;;;0.97;100.00
11856;BME280;5987;53.140;8.904;2023-04-27T02:09:40;102063.00;;;1.01;100.00
11856;BME280;5987;53.140;8.904;2023-04-27T02:12:44;102061.13;;;0.94;100.00
11856;BME280;5987;53.140;8.904;2023-04-27T02:15:48;102069.88;;;0.99;100.00
11856;BME280;5987;53.140;8.904;2023-04-27T02:18:51;102071.47;;;0.94;100.00
11856;BME280;5987;53.140;8.904;2023-04-27T02:21:56;102070.66;;;0.95;100.00
11856;BME280;5987;53.140;8.904;2023-04-27T02:25:01;102067.13;;;0.93;100.00
11856;BME280;5987;53.140;8.904;2023-04-27T02:28:04;102070.50;;;0.89;100.00
11856;BME280;5987;53.140;8.904;2023-04-27T02:31:09;102068.00;;;0.92;100.00
11856;BME280;5987;53.140;8.904;2023-04-27T02:34:13;102075.53;;;0.82;100.00
11856;BME280;5987;53.140;8.904;2023-04-27T02:37:17;102069.47;;;0.80;100.00
11856;BME280;5987;53.140;8.904;2023-04-27T02:40:22;102065.06;;;0.76;100.00
11856;BME280;5987;53.140;8.904;2023-04-27T02:43:26;102076.13;;;0.71;100.00
11856;BME280;5987;53.140;8.904;2023-04-27T02:46:29;102074.34;;;0.68;100.00
11856;BME280;5987;53.140;8.904;2023-04-27T02:49:34;102076.75;;;0.62;100.00
11856;BME280;5987;53.140;8.904;2023-04-27T02:52:39;102073.28;;;0.60;100.00
11856;BME280;5987;53.140;8.904;2023-04-27T02:55:46;102072.47;;;0.62;100.00
11856;BME280;5987;53.140;8.904;2023-04-27T02:58:50;102069.00;;;0.62;100.00
11856;BME280;5987;53.140;8.904;2023-04-27T03:01:53;102075.03;;;0.61;100.00
11856;BME280;5987;53.140;8.904;2023-04-27T03:04:57;102072.41;;;0.59;100.00
11856;BME280;5987;53.140;8.904;2023-04-27T03:08:02;102071.38;;;0.53;100.00
11856;BME280;5987;53.140;8.904;2023-04-27T03:11:07;102070.28;;;0.43;100.00
11856;BME280;5987;53.140;8.904;2023-04-27T03:14:11;102072.31;;;0.56;100.00
11856;BME280;5987;53.140;8.904;2023-04-27T03:17:15;102072.19;;;0.51;100.00
11856;BME280;5987;53.140;8.904;2023-04-27T03:20:20;102076.53;;;0.53;100.00
11856;BME280;5987;53.140;8.904;2023-04-27T03:23:24;102076.63;;;0.56;100.00
11856;BME280;5987;53.140;8.904;2023-04-27T03:26:29;102073.13;;;0.54;100.00
11856;BME280;5987;53.140;8.904;2023-04-27T03:29:32;102082.50;;;0.50;100.00
11856;BME280;5987;53.140;8.904;2023-04-27T03:32:36;102074.72;;;0.48;100.00
11856;BME280;5987;53.140;8.904;2023-04-27T03:35:40;102078.00;;;0.41;100.00
11856;BME280;5987;53.140;8.904;2023-04-27T03:38:43;102076.13;;;0.36;100.00
11856;BME280;5987;53.140;8.904;2023-04-27T03:41:49;102074.34;;;0.33;100.00
11856;BME280;5987;53.140;8.904;2023-04-27T03:44:52;102080.25;;;0.29;100.00
11856;BME280;5987;53.140;8.904;2023-04-27T03:47:56;102089.75;;;0.30;100.00
11856;BME280;5987;53.140;8.904;2023-04-27T03:51:00;102086.25;;;0.28;100.00
11856;BME280;5987;53.140;8.904;2023-04-27T03:54:03;102097.28;;;0.22;100.00
11856;BME280;5987;53.140;8.904;2023-04-27T03:57:09;102093.66;;;0.15;100.00
11856;BME280;5987;53.140;8.904;2023-04-27T04:00:13;102091.19;;;0.19;100.00
11856;BME280;5987;53.140;8.904;2023-04-27T04:03:17;102092.09;;;0.21;100.00
11856;BME280;5987;53.140;8.904;2023-04-27T04:06:21;102093.03;;;0.23;100.00
11856;BME280;5987;53.140;8.904;2023-04-27T04:09:25;102088.75;;;0.25;100.00
11856;BME280;5987;53.140;8.904;2023-04-27T04:12:30;102091.25;;;0.22;100.00
11856;BME280;5987;53.140;8.904;2023-04-27T04:15:33;102097.38;;;0.25;100.00
11856;BME280;5987;53.140;8.904;2023-04-27T04:18:37;102096.34;;;0.19;100.00
11856;BME280;5987;53.140;8.904;2023-04-27T04:21:41;102106.03;;;0.27;100.00
11856;BME280;5987;53.140;8.904;2023-04-27T04:24:44;102106.34;;;0.38;100.00
11856;BME280;5987;53.140;8.904;2023-04-27T04:27:49;102105.47;;;0.39;100.00
11856;BME280;5987;53.140;8.904;2023-04-27T04:30:53;102114.81;;;0.32;100.00
11856;BME280;5987;53.140;8.904;2023-04-27T04:33:58;102115.84;;;0.41;100.00
11856;BME280;5987;53.140;8.904;2023-04-27T04:37:02;102115.75;;;0.36;100.00
11856;BME280;5987;53.140;8.904;2023-04-27T04:40:08;102123.66;;;0.42;100.00
11856;BME280;5987;53.140;8.904;2023-04-27T04:43:13;102122.88;;;0.46;100.00
11856;BME280;5987;53.140;8.904;2023-04-27T04:46:17;102116.25;;;0.56;100.00
11856;BME280;5987;53.140;8.904;2023-04-27T04:49:21;102116.59;;;0.70;100.00
11856;BME280;5987;53.140;8.904;2023-04-27T04:52:25;102118.44;;;0.76;100.00
11856;BME280;5987;53.140;8.904;2023-04-27T04:55:29;102116.09;;;0.85;100.00
11856;BME280;5987;53.140;8.904;2023-04-27T04:58:34;102110.25;;;0.94;100.00
11856;BME280;5987;53.140;8.904;2023-04-27T05:01:37;102106.16;;;1.02;100.00
11856;BME280;5987;53.140;8.904;2023-04-27T05:04:41;102113.97;;;1.05;100.00
11856;BME280;5987;53.140;8.904;2023-04-27T05:07:45;102111.59;;;1.13;100.00
11856;BME280;5987;53.140;8.904;2023-04-27T05:10:49;102115.28;;;1.24;100.00
11856;BME280;5987;53.140;8.904;2023-04-27T05:13:54;102107.84;;;1.38;100.00
11856;BME280;5987;53.140;8.904;2023-04-27T05:16:58;102114.06;;;1.48;100.00
11856;BME280;5987;53.140;8.904;2023-04-27T05:20:02;102107.19;;;1.48;100.00
11856;BME280;5987;53.140;8.904;2023-04-27T05:23:06;102122.19;;;1.65;100.00
11856;BME280;5987;53.140;8.904;2023-04-27T05:26:14;102127.69;;;1.80;100.00
11856;BME280;5987;53.140;8.904;2023-04-27T05:29:19;102126.34;;;2.01;100.00
11856;BME280;5987;53.140;8.904;2023-04-27T05:32:23;102133.59;;;2.17;100.00
11856;BME280;5987;53.140;8.904;2023-04-27T05:35:26;102128.97;;;2.48;100.00
11856;BME280;5987;53.140;8.904;2023-04-27T05:38:31;102122.47;;;2.73;100.00
11856;BME280;5987;53.140;8.904;2023-04-27T05:41:37;102125.78;;;2.65;100.00
11856;BME280;5987;53.140;8.904;2023-04-27T05:44:42;102124.88;;;2.63;100.00
11856;BME280;5987;53.140;8.904;2023-04-27T05:47:46;102133.25;;;2.46;100.00
11856;BME280;5987;53.140;8.904;2023-04-27T05:50:58;102121.94;;;2.93;100.00
11856;BME280;5987;53.140;8.904;2023-04-27T05:54:03;102126.06;;;3.41;100.00
11856;BME280;5987;53.140;8.904;2023-04-27T05:57:07;102125.19;;;3.38;100.00
11856;BME280;5987;53.140;8.904;2023-04-27T06:00:15;102123.09;;;3.78;100.00
11856;BME280;5987;53.140;8.904;2023-04-27T06:03:18;102125.00;;;3.91;100.00
11856;BME280;5987;53.140;8.904;2023-04-27T06:06:23;102127.19;;;4.37;100.00
11856;BME280;5987;53.140;8.904;2023-04-27T06:09:27;102128.00;;;4.33;100.00
11856;BME280;5987;53.140;8.904;2023-04-27T06:12:32;102128.06;;;4.36;100.00
11856;BME280;5987;53.140;8.904;2023-04-27T06:15:37;102118.69;;;4.52;100.00
11856;BME280;5987;53.140;8.904;2023-04-27T06:18:41;102124.06;;;4.74;100.00
11856;BME280;5987;53.140;8.904;2023-04-27T06:21:45;102128.47;;;4.81;100.00
11856;BME280;5987;53.140;8.904;2023-04-27T06:24:49;102131.09;;;4.86;100.00
11856;BME280;5987;53.140;8.904;2023-04-27T06:27:52;102126.94;;;5.11;100.00
11856;BME280;5987;53.140;8.904;2023-04-27T06:30:57;102133.94;;;5.21;100.00
11856;BME280;5987;53.140;8.904;2023-04-27T06:34:01;102134.03;;;5.37;100.00
11856;BME280;5987;53.140;8.904;2023-04-27T06:37:06;102130.66;;;5.53;100.00
11856;BME280;5987;53.140;8.904;2023-04-27T06:40:11;102138.56;;;5.64;100.00
11856;BME280;5987;53.140;8.904;2023-04-27T06:43:14;102143.78;;;5.69;100.00
11856;BME280;5987;53.140;8.904;2023-04-27T06:46:20;102140.25;;;5.57;100.00
11856;BME280;5987;53.140;8.904;2023-04-27T06:49:23;102133.44;;;5.92;100.00
11856;BME280;5987;53.140;8.904;2023-04-27T06:52:30;102130.03;;;6.16;100.00
11856;BME280;5987;53.140;8.904;2023-04-27T06:55:34;102124.88;;;6.44;100.00
11856;BME280;5987;53.140;8.904;2023-04-27T06:58:38;102129.25;;;6.66;100.00
11856;BME280;5987;53.140;8.904;2023-04-27T07:01:43;102131.00;;;7.01;100.00
11856;BME280;5987;53.140;8.904;2023-04-27T07:04:47;102128.38;;;6.55;100.00
11856;BME280;5987;53.140;8.904;2023-04-27T07:07:51;102130.13;;;6.75;100.00
11856;BME280;5987;53.140;8.904;2023-04-27T07:10:55;102135.34;;;7.02;100.00
11856;BME280;5987;53.140;8.904;2023-04-27T07:13:59;102123.16;;;7.12;100.00
11856;BME280;5987;53.140;8.904;2023-04-27T07:17:05;102130.13;;;6.89;100.00
11856;BME280;5987;53.140;8.904;2023-04-27T07:20:09;102126.66;;;6.86;100.00
11856;BME280;5987;53.140;8.904;2023-04-27T07:23:13;102127.53;;;6.75;100.00
11856;BME280;5987;53.140;8.904;2023-04-27T07:26:17;102122.28;;;7.18;100.00
11856;BME280;5987;53.140;8.904;2023-04-27T07:29:21;102121.31;;;7.51;100.00
11856;BME280;5987;53.140;8.904;2023-04-27T07:32:30;102125.63;;;7.63;100.00
11856;BME280;5987;53.140;8.904;2023-04-27T07:35:33;102122.09;;;7.78;100.00
11856;BME280;5987;53.140;8.904;2023-04-27T07:38:37;102126.47;;;7.62;100.00
11856;BME280;5987;53.140;8.904;2023-04-27T07:41:41;102125.47;;;7.97;100.00
11856;BME280;5987;53.140;8.904;2023-04-27T07:44:44;102124.56;;;8.06;100.00
11856;BME280;5987;53.140;8.904;2023-04-27T07:47:50;102122.91;;;7.91;100.00
11856;BME280;5987;53.140;8.904;2023-04-27T07:50:54;102124.78;;;7.55;100.00
11856;BME280;5987;53.140;8.904;2023-04-27T07:53:58;102126.50;;;7.65;100.00
11856;BME280;5987;53.140;8.904;2023-04-27T07:57:07;102128.97;;;7.96;100.00
11856;BME280;5987;53.140;8.904;2023-04-27T08:00:12;102127.31;;;7.70;100.00
11856;BME280;5987;53.140;8.904;2023-04-27T08:03:18;102123.53;;;8.33;100.00
11856;BME280;5987;53.140;8.904;2023-04-27T08:06:24;102120.16;;;8.10;100.00
11856;BME280;5987;53.140;8.904;2023-04-27T08:09:30;102119.47;;;7.80;100.00
11856;BME280;5987;53.140;8.904;2023-04-27T08:12:34;102114.88;;;8.20;100.00
11856;BME280;5987;53.140;8.904;2023-04-27T08:15:38;102113.91;;;8.37;100.00
11856;BME280;5987;53.140;8.904;2023-04-27T08:18:44;102106.78;;;8.57;100.00
11856;BME280;5987;53.140;8.904;2023-04-27T08:21:48;102121.97;;;8.04;100.00
11856;BME280;5987;53.140;8.904;2023-04-27T08:24:52;102111.97;;;8.68;100.00
11856;BME280;5987;53.140;8.904;2023-04-27T08:27:56;102111.22;;;8.48;100.00
11856;BME280;5987;53.140;8.904;2023-04-27T08:30:59;102110.09;;;8.80;100.00
11856;BME280;5987;53.140;8.904;2023-04-27T08:34:05;102108.28;;;9.69;100.00
11856;BME280;5987;53.140;8.904;2023-04-27T08:37:08;102102.16;;;9.70;100.00
11856;BME280;5987;53.140;8.904;2023-04-27T08:40:13;102098.81;;;9.58;100.00
11856;BME280;5987;53.140;8.904;2023-04-27T08:43:16;102099.50;;;9.71;100.00
11856;BME280;5987;53.140;8.904;2023-04-27T08:46:21;102098.28;;;9.99;100.00
11856;BME280;5987;53.140;8.904;2023-04-27T08:49:27;102095.19;;;9.67;100.00
11856;BME280;5987;53.140;8.904;2023-04-27T08:52:31;102092.34;;;9.09;92.81
11856;BME280;5987;53.140;8.904;2023-04-27T08:55:35;102093.66;;;9.49;99.50
11856;BME280;5987;53.140;8.904;2023-04-27T08:58:39;102094.28;;;10.35;100.00
11856;BME280;5987;53.140;8.904;2023-04-27T09:01:43;102088.41;;;9.52;100.00
11856;BME280;5987;53.140;8.904;2023-04-27T09:04:49;102093.31;;;10.42;100.00
11856;BME280;5987;53.140;8.904;2023-04-27T09:08:02;102105.94;;;10.16;100.00
11856;BME280;5987;53.140;8.904;2023-04-27T09:11:06;102094.22;;;10.40;100.00
11856;BME280;5987;53.140;8.904;2023-04-27T09:14:18;102090.78;;;10.35;100.00
11856;BME280;5987;53.140;8.904;2023-04-27T09:17:25;102103.94;;;9.69;94.34
11856;BME280;5987;53.140;8.904;2023-04-27T09:20:30;102107.13;;;9.17;90.96
11856;BME280;5987;53.140;8.904;2023-04-27T09:23:36;102101.69;;;10.04;86.62
11856;BME280;5987;53.140;8.904;2023-04-27T09:26:40;102104.19;;;10.15;79.99
11856;BME280;5987;53.140;8.904;2023-04-27T09:29:44;102099.03;;;10.64;87.50
11856;BME280;5987;53.140;8.904;2023-04-27T09:32:51;102092.84;;;11.19;73.42
11856;BME280;5987;53.140;8.904;2023-04-27T09:35:57;102093.41;;;10.35;83.68
11856;BME280;5987;53.140;8.904;2023-04-27T09:39:02;102106.25;;;10.52;76.85
11856;BME280;5987;53.140;8.904;2023-04-27T09:42:07;102107.72;;;10.10;78.11
11856;BME280;5987;53.140;8.904;2023-04-27T09:45:12;102096.19;;;10.24;78.47
11856;BME280;5987;53.140;8.904;2023-04-27T09:48:17;102096.59;;;9.94;76.15
11856;BME280;5987;53.140;8.904;2023-04-27T09:51:22;102094.34;;;9.65;81.53
11856;BME280;5987;53.140;8.904;2023-04-27T09:54:29;102091.19;;;10.04;85.87
11856;BME280;5987;53.140;8.904;2023-04-27T09:57:39;102095.66;;;10.00;81.44
11856;BME280;5987;53.140;8.904;2023-04-27T10:00:59;102096.88;;;9.73;81.77
11856;BME280;5987;53.140;8.904;2023-04-27T10:04:33;102098.88;;;10.18;85.38
11856;BME280;5987;53.140;8.904;2023-04-27T10:07:43;102090.56;;;9.88;85.64
11856;BME280;5987;53.140;8.904;2023-04-27T10:10:49;102092.09;;;10.04;80.00
11856;BME280;5987;53.140;8.904;2023-04-27T10:13:54;102090.34;;;10.62;85.29
11856;BME280;5987;53.140;8.904;2023-04-27T10:16:58;102096.38;;;10.10;88.03
11856;BME280;5987;53.140;8.904;2023-04-27T10:20:04;102095.59;;;9.33;85.70
11856;BME280;5987;53.140;8.904;2023-04-27T10:23:22;102097.09;;;9.54;91.60
11856;BME280;5987;53.140;8.904;2023-04-27T10:26:27;102103.16;;;9.61;93.45
11856;BME280;5987;53.140;8.904;2023-04-27T10:29:38;102099.44;;;9.79;95.40
11856;BME280;5987;53.140;8.904;2023-04-27T10:32:51;102110.63;;;9.19;85.49
11856;BME280;5987;53.140;8.904;2023-04-27T10:35:57;102106.88;;;9.41;84.21
11856;BME280;5987;53.140;8.904;2023-04-27T10:39:13;102110.44;;;9.34;82.84
11856;BME280;5987;53.140;8.904;2023-04-27T10:42:27;102103.88;;;8.95;87.84
11856;BME280;5987;53.140;8.904;2023-04-27T10:45:33;102088.44;;;9.48;92.45
11856;BME280;5987;53.140;8.904;2023-04-27T10:48:38;102095.16;;;9.70;79.59
11856;BME280;5987;53.140;8.904;2023-04-27T10:51:42;102089.69;;;9.13;86.97
11856;BME280;5987;53.140;8.904;2023-04-27T10:54:47;102092.91;;;9.38;85.87
11856;BME280;5987;53.140;8.904;2023-04-27T10:57:53;102088.81;;;9.87;80.84
11856;BME280;5987;53.140;8.904;2023-04-27T11:00:57;102081.88;;;10.43;68.08
11856;BME280;5987;53.140;8.904;2023-04-27T11:04:02;102088.53;;;10.07;65.89
11856;BME280;5987;53.140;8.904;2023-04-27T11:07:07;102087.00;;;9.92;70.99
11856;BME280;5987;53.140;8.904;2023-04-27T11:10:16;102074.88;;;9.82;64.12
11856;BME280;5987;53.140;8.904;2023-04-27T11:13:22;102080.13;;;9.82;61.81
11856;BME280;5987;53.140;8.904;2023-04-27T11:16:27;102069.22;;;10.14;63.06
11856;BME280;5987;53.140;8.904;2023-04-27T11:19:43;102061.44;;;10.62;78.18
11856;BME280;5987;53.140;8.904;2023-04-27T11:22:49;102065.63;;;10.18;63.42
11856;BME280;5987;53.140;8.904;2023-04-27T11:25:54;102054.56;;;10.55;63.85
11856;BME280;5987;53.140;8.904;2023-04-27T11:29:02;102057.88;;;10.10;65.75
11856;BME280;5987;53.140;8.904;2023-04-27T11:32:06;102062.66;;;10.43;73.85
11856;BME280;5987;53.140;8.904;2023-04-27T11:35:10;102057.06;;;10.61;71.88
11856;BME280;5987;53.140;8.904;2023-04-27T11:38:15;102055.63;;;10.45;69.16
11856;BME280;5987;53.140;8.904;2023-04-27T11:41:21;102052.78;;;11.06;74.72
11856;BME280;5987;53.140;8.904;2023-04-27T11:44:26;102047.31;;;11.16;64.21
11856;BME280;5987;53.140;8.904;2023-04-27T11:47:31;102049.25;;;11.08;59.78
11856;BME280;5987;53.140;8.904;2023-04-27T11:50:36;102053.00;;;10.93;64.81
11856;BME280;5987;53.140;8.904;2023-04-27T11:53:39;102046.47;;;10.69;60.70
11856;BME280;5987;53.140;8.904;2023-04-27T11:56:45;102050.19;;;11.04;61.66
11856;BME280;5987;53.140;8.904;2023-04-27T11:59:49;102047.94;;;10.82;62.86
11856;BME280;5987;53.140;8.904;2023-04-27T12:02:53;102048.97;;;11.63;60.46
11856;BME280;5987;53.140;8.904;2023-04-27T12:05:57;102051.38;;;11.33;59.27
11856;BME280;5987;53.140;8.904;2023-04-27T12:09:21;102057.81;;;10.70;59.60
11856;BME280;5987;53.140;8.904;2023-04-27T12:12:26;102059.31;;;10.85;61.13
11856;BME280;5987;53.140;8.904;2023-04-27T12:15:30;102059.75;;;11.08;67.84
11856;BME280;5987;53.140;8.904;2023-04-27T12:18:34;102055.31;;;11.10;63.03
11856;BME280;5987;53.140;8.904;2023-04-27T12:21:37;102055.47;;;11.03;61.24
11856;BME280;5987;53.140;8.904;2023-04-27T12:24:41;102063.06;;;11.16;61.71
11856;BME280;5987;53.140;8.904;2023-04-27T12:27:46;102058.28;;;10.93;60.12
11856;BME280;5987;53.140;8.904;2023-04-27T12:30:50;102052.16;;;10.93;59.39
11856;BME280;5987;53.140;8.904;2023-04-27T12:33:54;102048.06;;;11.23;59.04
11856;BME280;5987;53.140;8.904;2023-04-27T12:36:58;102051.59;;;11.21;58.89
11856;BME280;5987;53.140;8.904;2023-04-27T12:40:02;102054.94;;;11.29;59.90
11856;BME280;5987;53.140;8.904;2023-04-27T12:43:09;102053.78;;;11.00;63.15
11856;BME280;5987;53.140;8.904;2023-04-27T12:46:14;102059.19;;;10.91;60.38
11856;BME280;5987;53.140;8.904;2023-04-27T12:49:19;102057.13;;;11.52;60.98
11856;BME280;5987;53.140;8.904;2023-04-27T12:52:23;102057.78;;;11.62;59.62
11856;BME280;5987;53.140;8.904;2023-04-27T12:55:27;102051.66;;;12.02;57.97
11856;BME280;5987;53.140;8.904;2023-04-27T12:58:37;102054.78;;;11.79;55.95
11856;BME280;5987;53.140;8.904;2023-04-27T13:01:41;102048.38;;;11.06;56.67
11856;BME280;5987;53.140;8.904;2023-04-27T13:04:45;102058.28;;;11.37;55.94
11856;BME280;5987;53.140;8.904;2023-04-27T13:07:49;102056.66;;;10.86;57.77
11856;BME280;5987;53.140;8.904;2023-04-27T13:10:52;102061.78;;;11.39;64.00
11856;BME280;5987;53.140;8.904;2023-04-27T13:13:58;102060.34;;;11.65;58.83
11856;BME280;5987;53.140;8.904;2023-04-27T13:17:03;102048.28;;;11.95;54.82
11856;BME280;5987;53.140;8.904;2023-04-27T13:20:08;102051.09;;;11.47;56.68
11856;BME280;5987;53.140;8.904;2023-04-27T13:23:12;102052.84;;;11.46;59.46
11856;BME280;5987;53.140;8.904;2023-04-27T13:26:16;102044.50;;;11.68;58.19
11856;BME280;5987;53.140;8.904;2023-04-27T13:29:22;102047.72;;;11.40;58.93
11856;BME280;5987;53.140;8.904;2023-04-27T13:32:26;102040.94;;;10.85;58.65
11856;BME280;5987;53.140;8.904;2023-04-27T13:35:30;102034.59;;;10.95;59.63
11856;BME280;5987;53.140;8.904;2023-04-27T13:38:34;102033.50;;;11.05;59.53
11856;BME280;5987;53.140;8.904;2023-04-27T13:41:38;102031.03;;;10.97;61.95
11856;BME280;5987;53.140;8.904;2023-04-27T13:44:43;102030.44;;;10.83;60.96
11856;BME280;5987;53.140;8.904;2023-04-27T13:47:46;102027.72;;;10.38;61.87
11856;BME280;5987;53.140;8.904;2023-04-27T13:50:50;102026.47;;;10.59;64.77
11856;BME280;5987;53.140;8.904;2023-04-27T13:53:54;102019.88;;;10.36;62.28
11856;BME280;5987;53.140;8.904;2023-04-27T13:56:57;102029.59;;;10.28;63.80
11856;BME280;5987;53.140;8.904;2023-04-27T14:00:04;102014.59;;;10.39;63.24
11856;BME280;5987;53.140;8.904;2023-04-27T14:03:09;102008.41;;;10.40;64.74
11856;BME280;5987;53.140;8.904;2023-04-27T14:06:13;102007.53;;;10.41;66.92
11856;BME280;5987;53.140;8.904;2023-04-27T14:09:17;102010.00;;;10.49;64.54
11856;BME280;5987;53.140;8.904;2023-04-27T14:12:21;102005.53;;;10.56;65.65
11856;BME280;5987;53.140;8.904;2023-04-27T14:15:26;102000.25;;;11.04;65.47
11856;BME280;5987;53.140;8.904;2023-04-27T14:18:30;102007.00;;;11.58;60.53
11856;BME280;5987;53.140;8.904;2023-04-27T14:21:34;101998.72;;;11.75;60.09
11856;BME280;5987;53.140;8.904;2023-04-27T14:24:38;102001.63;;;11.24;60.80
11856;BME280;5987;53.140;8.904;2023-04-27T14:27:43;101995.84;;;11.05;61.95
11856;BME280;5987;53.140;8.904;2023-04-27T14:30:48;101988.09;;;10.98;64.34
11856;BME280;5987;53.140;8.904;2023-04-27T14:33:51;101992.06;;;11.20;64.01
11856;BME280;5987;53.140;8.904;2023-04-27T14:36:55;101983.88;;;10.90;61.77
11856;BME280;5987;53.140;8.904;2023-04-27T14:39:59;101986.25;;;11.02;62.42
11856;BME280;5987;53.140;8.904;2023-04-27T14:43:04;101987.31;;;10.93;60.51
11856;BME280;5987;53.140;8.904;2023-04-27T14:46:09;101989.94;;;10.93;58.61
11856;BME280;5987;53.140;8.904;2023-04-27T14:49:21;101989.25;;;10.84;60.39
11856;BME280;5987;53.140;8.904;2023-04-27T14:52:26;101989.97;;;10.92;62.06
11856;BME280;5987;53.140;8.904;2023-04-27T14:55:30;101982.13;;;10.90;61.79
11856;BME280;5987;53.140;8.904;2023-04-27T14:58:34;101977.50;;;11.03;61.96
11856;BME280;5987;53.140;8.904;2023-04-27T15:01:39;101991.09;;;10.78;66.96
11856;BME280;5987;53.140;8.904;2023-04-27T15:04:42;101986.88;;;10.71;67.43
11856;BME280;5987;53.140;8.904;2023-04-27T15:07:46;101984.28;;;10.68;66.17
11856;BME280;5987;53.140;8.904;2023-04-27T15:10:50;101987.19;;;10.54;63.29
11856;BME280;5987;53.140;8.904;2023-04-27T15:13:55;101991.84;;;10.38;63.74
11856;BME280;5987;53.140;8.904;2023-04-27T15:17:00;101987.69;;;10.23;63.97
11856;BME280;5987;53.140;8.904;2023-04-27T15:20:05;101984.00;;;10.34;63.71
11856;BME280;5987;53.140;8.904;2023-04-27T15:23:09;101991.06;;;10.30;67.71
11856;BME280;5987;53.140;8.904;2023-04-27T15:26:13;101978.16;;;10.69;61.42
11856;BME280;5987;53.140;8.904;2023-04-27T15:29:16;101981.97;;;10.53;63.90
11856;BME280;5987;53.140;8.904;2023-04-27T15:32:21;101979.84;;;10.22;71.82
11856;BME280;5987;53.140;8.904;2023-04-27T15:35:31;101984.47;;;10.06;69.39
11856;BME280;5987;53.140;8.904;2023-04-27T15:38:34;101972.84;;;10.21;72.27
11856;BME280;5987;53.140;8.904;2023-04-27T15:41:38;101981.22;;;10.44;70.15
11856;BME280;5987;53.140;8.904;2023-04-27T15:44:42;101977.06;;;10.31;71.09
11856;BME280;5987;53.140;8.904;2023-04-27T15:47:47;101969.53;;;10.09;71.10
11856;BME280;5987;53.140;8.904;2023-04-27T15:50:51;101977.34;;;10.12;73.07
11856;BME280;5987;53.140;8.904;2023-04-27T15:53:55;101979.00;;;10.18;74.45
11856;BME280;5987;53.140;8.904;2023-04-27T15:56:59;101977.03;;;10.33;75.68
11856;BME280;5987;53.140;8.904;2023-04-27T16:00:07;101973.69;;;10.23;73.33
11856;BME280;5987;53.140;8.904;2023-04-27T16:03:12;101981.63;;;10.20;77.70
11856;BME280;5987;53.140;8.904;2023-04-27T16:06:17;101973.00;;;10.11;81.05
11856;BME280;5987;53.140;8.904;2023-04-27T16:09:22;101970.19;;;10.24;78.41
11856;BME280;5987;53.140;8.904;2023-04-27T16:12:28;101968.38;;;10.26;79.17
11856;BME280;5987;53.140;8.904;2023-04-27T16:15:31;101963.03;;;10.35;75.36
11856;BME280;5987;53.140;8.904;2023-04-27T16:18:37;101957.91;;;10.24;79.50